createdAt,value
2018-12-18T00:01:10.672Z,15.50
2018-12-18T00:03:39.601Z,16.23
2018-12-18T00:06:08.570Z,17.13
2018-12-18T00:08:37.333Z,16.37
2018-12-18T00:11:08.111Z,16.03
2018-12-18T00:13:36.864Z,16.33
2018-12-18T00:16:06.113Z,14.90
2018-12-18T00:18:34.865Z,15.60
2018-12-18T00:21:03.637Z,16.43
2018-12-18T00:23:32.335Z,16.20
2018-12-18T00:26:01.117Z,16.30
2018-12-18T00:28:29.890Z,14.23
2018-12-18T00:30:58.690Z,15.57
2018-12-18T00:33:27.421Z,15.80
2018-12-18T00:35:56.229Z,15.80
2018-12-18T00:38:24.962Z,16.43
2018-12-18T00:40:53.757Z,15.90
2018-12-18T00:43:22.469Z,15.53
2018-12-18T00:45:51.817Z,15.67
2018-12-18T00:48:20.600Z,16.07
2018-12-18T00:50:49.420Z,14.97
2018-12-18T00:53:18.137Z,16.93
2018-12-18T00:55:46.899Z,16.37
2018-12-18T00:58:15.612Z,16.40
2018-12-18T01:00:44.372Z,16.37
2018-12-18T01:03:13.137Z,15.17
2018-12-18T01:05:42.370Z,14.37
2018-12-18T01:08:11.075Z,14.80
2018-12-18T01:10:39.840Z,15.60
2018-12-18T01:13:08.757Z,15.57
2018-12-18T01:15:37.453Z,17.07
2018-12-18T01:18:06.146Z,16.67
2018-12-18T01:20:34.827Z,15.80
2018-12-18T01:23:03.590Z,17.27
2018-12-18T01:25:32.305Z,17.30
2018-12-18T01:28:00.987Z,17.40
2018-12-18T01:30:29.766Z,17.00
2018-12-18T01:32:58.489Z,17.73
2018-12-18T01:35:27.182Z,19.00
2018-12-18T01:37:55.906Z,18.60
2018-12-18T01:40:24.659Z,17.67
2018-12-18T01:42:53.351Z,17.40
2018-12-18T01:45:22.744Z,18.00
2018-12-18T01:47:51.528Z,17.90
2018-12-18T01:50:20.229Z,17.93
2018-12-18T01:52:48.981Z,16.80
2018-12-18T01:55:17.764Z,17.83
2018-12-18T01:57:46.535Z,17.37
2018-12-18T02:00:15.437Z,19.40
2018-12-18T02:02:44.263Z,18.37
2018-12-18T02:05:13.483Z,19.00
2018-12-18T02:07:42.233Z,18.90
2018-12-18T02:10:11.053Z,19.43
2018-12-18T02:12:39.772Z,19.77
2018-12-18T02:15:08.935Z,19.77
2018-12-18T02:17:37.671Z,19.10
2018-12-18T02:20:07.871Z,18.80
2018-12-18T02:22:37.123Z,18.23
2018-12-18T02:25:07.448Z,19.53
2018-12-18T02:27:36.152Z,19.83
2018-12-18T02:30:09.295Z,20.37
2018-12-18T02:32:37.940Z,19.00
2018-12-18T02:35:07.364Z,18.33
2018-12-18T02:37:36.109Z,18.10
2018-12-18T02:40:05.671Z,18.43
2018-12-18T02:42:34.409Z,19.67
2018-12-18T02:45:03.183Z,18.10
2018-12-18T02:47:31.939Z,19.33
2018-12-18T02:50:01.131Z,19.03
2018-12-18T02:52:29.944Z,18.53
2018-12-18T02:54:58.738Z,18.63
2018-12-18T02:57:27.472Z,18.67
2018-12-18T02:59:56.220Z,18.93
2018-12-18T03:02:24.975Z,19.33
2018-12-18T03:04:53.793Z,19.27
2018-12-18T03:07:22.603Z,20.87
2018-12-18T03:09:51.365Z,20.67
2018-12-18T03:12:21.235Z,20.97
2018-12-18T03:14:50.021Z,22.07
2018-12-18T03:17:19.245Z,19.83
2018-12-18T03:19:47.983Z,18.30
2018-12-18T03:22:16.747Z,19.37
2018-12-18T03:24:45.567Z,19.40
2018-12-18T03:27:14.254Z,18.33
2018-12-18T03:29:43.019Z,19.13
2018-12-18T03:32:16.964Z,18.20
2018-12-18T03:34:45.989Z,18.67
2018-12-18T03:37:14.729Z,18.50
2018-12-18T03:39:43.487Z,17.40
2018-12-18T03:42:12.215Z,18.70
2018-12-18T03:44:41.017Z,19.00
2018-12-18T03:47:09.775Z,19.80
2018-12-18T03:49:38.449Z,20.33
2018-12-18T03:52:07.888Z,18.87
2018-12-18T03:54:36.595Z,19.17
2018-12-18T03:57:05.328Z,19.23
2018-12-18T03:59:34.036Z,18.97
2018-12-18T04:02:02.762Z,17.60
2018-12-18T04:04:35.532Z,18.23
2018-12-18T04:07:03.088Z,18.30
2018-12-18T04:09:31.842Z,20.10
2018-12-18T04:12:15.580Z,18.40
2018-12-18T04:14:44.420Z,19.97
2018-12-18T04:17:13.192Z,19.27
2018-12-18T04:19:41.909Z,19.83
2018-12-18T04:22:10.654Z,19.60
2018-12-18T04:24:39.442Z,19.17
2018-12-18T04:27:08.246Z,19.40
2018-12-18T04:29:36.947Z,19.50
2018-12-18T04:32:05.764Z,20.40
2018-12-18T04:34:42.643Z,21.10
2018-12-18T04:37:06.209Z,20.03
2018-12-18T04:39:34.932Z,21.23
2018-12-18T04:42:03.685Z,19.47
2018-12-18T04:44:32.454Z,20.73
2018-12-18T04:47:01.306Z,19.57
2018-12-18T04:49:30.049Z,22.53
2018-12-18T04:51:58.774Z,22.90
2018-12-18T04:54:27.524Z,21.40
2018-12-18T04:56:56.970Z,21.23
2018-12-18T04:59:25.721Z,21.33
2018-12-18T05:01:55.028Z,23.93
2018-12-18T05:04:23.740Z,21.83
2018-12-18T05:06:52.466Z,22.47
2018-12-18T05:09:21.319Z,23.07
2018-12-18T05:11:50.018Z,22.17
2018-12-18T05:14:18.778Z,22.10
2018-12-18T05:16:47.584Z,21.50
2018-12-18T05:19:16.315Z,20.70
2018-12-18T05:21:45.019Z,22.07
2018-12-18T05:24:13.872Z,22.70
2018-12-18T05:26:42.644Z,22.23
2018-12-18T05:29:12.606Z,23.77
2018-12-18T05:31:41.402Z,22.77
2018-12-18T05:34:10.119Z,23.57
2018-12-18T05:36:38.933Z,24.07
2018-12-18T05:39:08.019Z,22.20
2018-12-18T05:41:37.284Z,23.30
2018-12-18T05:44:05.938Z,22.13
2018-12-18T05:46:34.685Z,21.57
2018-12-18T05:49:03.414Z,21.63
2018-12-18T05:51:32.066Z,23.17
2018-12-18T05:54:00.704Z,23.70
2018-12-18T05:56:29.377Z,21.93
2018-12-18T05:58:58.200Z,21.37
2018-12-18T06:01:26.880Z,23.53
2018-12-18T06:03:55.577Z,21.60
2018-12-18T06:06:24.293Z,23.70
2018-12-18T06:08:53.017Z,23.03
2018-12-18T06:11:21.738Z,22.87
2018-12-18T06:13:50.487Z,23.70
2018-12-18T06:16:19.216Z,22.93
2018-12-18T06:18:47.940Z,25.10
2018-12-18T06:21:17.414Z,22.53
2018-12-18T06:23:46.157Z,24.13
2018-12-18T06:26:14.954Z,24.37
2018-12-18T06:28:43.712Z,25.27
2018-12-18T06:31:12.416Z,22.77
2018-12-18T06:33:41.071Z,25.20
2018-12-18T06:36:09.815Z,23.53
2018-12-18T06:38:38.610Z,24.07
2018-12-18T06:41:07.339Z,24.97
2018-12-18T06:43:36.039Z,25.30
2018-12-18T06:46:04.789Z,26.47
2018-12-18T06:48:33.508Z,24.90
2018-12-18T06:51:02.182Z,25.00
2018-12-18T06:53:30.819Z,25.37
2018-12-18T06:55:59.523Z,28.13
2018-12-18T06:58:28.162Z,26.97
2018-12-18T07:00:56.982Z,27.43
2018-12-18T07:03:25.687Z,26.57
2018-12-18T07:05:54.632Z,26.27
2018-12-18T07:08:23.368Z,26.63
2018-12-18T07:10:52.257Z,25.97
2018-12-18T07:13:20.937Z,26.67
2018-12-18T07:15:49.750Z,24.33
2018-12-18T07:18:18.497Z,25.27
2018-12-18T07:20:47.198Z,24.60
2018-12-18T07:23:16.511Z,24.53
2018-12-18T07:25:45.237Z,22.80
2018-12-18T07:28:13.887Z,24.00
2018-12-18T07:30:42.877Z,24.10
2018-12-18T07:33:11.559Z,22.80
2018-12-18T07:35:40.270Z,24.17
2018-12-18T07:38:08.970Z,24.00
2018-12-18T07:40:37.735Z,23.57
2018-12-18T07:43:06.470Z,23.47
2018-12-18T07:45:35.387Z,25.70
2018-12-18T07:48:04.204Z,27.43
2018-12-18T07:50:32.966Z,25.03
2018-12-18T07:53:01.776Z,25.40
2018-12-18T07:55:30.563Z,24.57
2018-12-18T07:57:59.301Z,24.83
2018-12-18T08:00:28.244Z,23.13
2018-12-18T08:02:56.970Z,21.73
2018-12-18T08:05:29.850Z,22.93
2018-12-18T08:07:57.110Z,23.43
2018-12-18T08:10:25.812Z,23.20
2018-12-18T08:12:54.574Z,20.63
2018-12-18T08:15:23.290Z,21.13
2018-12-18T08:17:52.306Z,18.20
2018-12-18T08:20:21.253Z,20.20
2018-12-18T08:22:49.944Z,20.87
2018-12-18T08:25:18.702Z,21.37
2018-12-18T08:27:47.377Z,22.93
2018-12-18T08:30:16.329Z,23.23
2018-12-18T08:32:45.046Z,23.07
2018-12-18T08:35:13.847Z,23.53
2018-12-18T08:37:42.602Z,23.70
2018-12-18T08:40:11.183Z,24.83
2018-12-18T08:42:41.377Z,23.73
2018-12-18T08:45:10.884Z,24.70
2018-12-18T08:47:39.621Z,25.70
2018-12-18T08:50:09.637Z,25.10
2018-12-18T08:52:38.381Z,24.50
2018-12-18T08:55:08.050Z,23.53
2018-12-18T08:57:36.742Z,25.13
2018-12-18T09:00:11.307Z,24.60
2018-12-18T09:02:40.014Z,23.67
2018-12-18T09:05:09.278Z,22.47
2018-12-18T09:07:38.077Z,23.40
2018-12-18T09:10:09.319Z,23.17
2018-12-18T09:12:38.034Z,23.20
2018-12-18T09:17:16.078Z,20.90
2018-12-18T09:19:44.882Z,20.43
2018-12-18T09:22:13.755Z,19.33
2018-12-18T09:24:42.522Z,20.13
2018-12-18T09:27:11.684Z,19.87
2018-12-18T09:29:40.452Z,20.63
2018-12-18T09:32:09.183Z,18.77
2018-12-18T09:34:38.192Z,20.53
2018-12-18T09:37:06.955Z,20.80
2018-12-18T09:39:41.898Z,19.60
2018-12-18T09:42:17.042Z,21.87
2018-12-18T09:44:45.795Z,21.37
2018-12-18T09:47:14.466Z,20.57
2018-12-18T09:49:43.199Z,21.47
2018-12-18T09:52:12.002Z,22.33
2018-12-18T09:54:40.757Z,21.93
2018-12-18T09:57:14.860Z,21.53
2018-12-18T09:59:43.585Z,23.47
2018-12-18T10:02:12.414Z,21.57
2018-12-18T10:04:41.165Z,21.63
2018-12-18T10:07:09.874Z,22.80
2018-12-18T10:09:38.640Z,22.80
2018-12-18T10:12:07.389Z,20.90
2018-12-18T10:14:36.112Z,22.70
2018-12-18T10:17:05.011Z,21.03
2018-12-18T10:19:33.711Z,20.67
2018-12-18T10:22:02.428Z,23.07
2018-12-18T10:24:31.299Z,24.37
2018-12-18T10:27:00.013Z,23.43
2018-12-18T10:29:28.894Z,23.83
2018-12-18T10:31:57.618Z,24.33
2018-12-18T10:34:26.581Z,23.60
2018-12-18T10:36:55.332Z,23.97
2018-12-18T10:39:24.110Z,23.73
2018-12-18T10:41:52.888Z,24.43
2018-12-18T10:44:22.470Z,23.90
2018-12-18T10:46:51.260Z,23.57
2018-12-18T10:49:20.000Z,21.90
2018-12-18T10:51:48.696Z,25.27
2018-12-18T10:54:17.430Z,22.57
2018-12-18T10:56:46.221Z,23.07
2018-12-18T10:59:14.986Z,23.23
2018-12-18T11:01:48.064Z,22.43
2018-12-18T11:04:16.849Z,23.27
2018-12-18T11:06:51.711Z,23.40
2018-12-18T11:09:20.505Z,24.90
2018-12-18T11:11:49.301Z,22.40
2018-12-18T11:14:18.119Z,23.67
2018-12-18T11:16:46.944Z,22.83
2018-12-18T11:19:15.827Z,20.70
2018-12-18T11:21:44.653Z,20.77
2018-12-18T11:24:13.481Z,21.37
2018-12-18T11:26:42.220Z,22.87
2018-12-18T11:29:10.934Z,22.10
2018-12-18T11:31:39.726Z,21.67
2018-12-18T11:34:08.451Z,23.20
2018-12-18T11:36:37.239Z,22.20
2018-12-18T11:39:07.666Z,21.37
2018-12-18T11:41:36.527Z,21.67
2018-12-18T11:44:05.325Z,20.43
2018-12-18T11:46:34.161Z,21.10
2018-12-18T11:49:02.997Z,20.47
2018-12-18T11:51:31.745Z,22.00
2018-12-18T11:54:00.556Z,22.27
2018-12-18T11:56:29.196Z,19.33
2018-12-18T11:58:58.425Z,20.53
2018-12-18T12:01:27.160Z,19.67
2018-12-18T12:03:55.887Z,22.13
2018-12-18T12:06:24.744Z,19.90
2018-12-18T12:08:53.478Z,22.67
2018-12-18T12:11:22.326Z,22.60
2018-12-18T12:13:51.218Z,22.23
2018-12-18T12:16:19.969Z,23.17
2018-12-18T12:18:48.691Z,23.23
2018-12-18T12:21:17.606Z,25.17
2018-12-18T12:23:46.414Z,24.07
2018-12-18T12:26:20.365Z,23.40
2018-12-18T12:28:49.208Z,23.93
2018-12-18T12:31:17.960Z,23.93
2018-12-18T12:33:46.618Z,22.50
2018-12-18T12:36:15.358Z,22.80
2018-12-18T12:38:44.092Z,23.90
2018-12-18T12:41:13.255Z,21.73
2018-12-18T12:43:42.031Z,23.17
2018-12-18T12:46:10.726Z,21.43
2018-12-18T12:48:44.690Z,23.70
2018-12-18T12:51:13.535Z,24.67
2018-12-18T12:53:42.353Z,23.63
2018-12-18T12:56:11.010Z,25.30
2018-12-18T12:58:39.794Z,24.27
2018-12-18T13:01:08.550Z,23.93
2018-12-18T13:03:37.257Z,24.47
2018-12-18T13:06:09.414Z,24.40
2018-12-18T13:08:38.220Z,24.13
2018-12-18T13:11:07.777Z,22.63
2018-12-18T13:13:36.605Z,22.83
2018-12-18T13:16:05.380Z,23.87
2018-12-18T13:18:34.259Z,23.47
2018-12-18T13:21:03.088Z,24.80
2018-12-18T13:23:31.831Z,26.03
2018-12-18T13:26:00.685Z,26.23
2018-12-18T13:28:29.494Z,26.27
2018-12-18T13:30:58.350Z,27.60
2018-12-18T13:33:27.122Z,25.97
2018-12-18T13:35:55.906Z,25.27
2018-12-18T13:38:24.986Z,23.13
2018-12-18T13:40:54.213Z,25.67
2018-12-18T13:43:23.113Z,24.70
2018-12-18T13:45:52.187Z,25.07
2018-12-18T13:48:21.202Z,24.33
2018-12-18T13:50:50.113Z,24.40
2018-12-18T13:53:19.738Z,23.70
2018-12-18T13:55:48.500Z,24.00
2018-12-18T13:58:17.173Z,23.67
2018-12-18T14:00:45.936Z,23.30
2018-12-18T14:03:14.748Z,23.67
2018-12-18T14:05:43.782Z,24.10
2018-12-18T14:08:13.688Z,22.43
2018-12-18T14:10:42.766Z,23.67
2018-12-18T14:13:11.797Z,23.53
2018-12-18T14:15:40.636Z,23.97
2018-12-18T14:18:09.503Z,24.03
2018-12-18T14:20:38.435Z,22.00
2018-12-18T14:23:08.118Z,23.27
2018-12-18T14:25:37.652Z,23.80
2018-12-18T14:28:06.556Z,23.33
2018-12-18T14:30:35.457Z,23.77
2018-12-18T14:33:04.580Z,24.83
2018-12-18T14:35:33.312Z,25.87
2018-12-18T14:38:02.903Z,25.43
2018-12-18T14:40:31.691Z,24.67
2018-12-18T14:43:00.550Z,25.27
2018-12-18T14:45:29.320Z,25.13
2018-12-18T14:47:58.099Z,23.20
2018-12-18T14:50:27.274Z,24.67
2018-12-18T14:52:56.067Z,24.60
2018-12-18T14:55:24.787Z,24.40
2018-12-18T14:57:53.587Z,24.43
2018-12-18T15:00:22.326Z,23.70
2018-12-18T15:02:51.015Z,23.33
2018-12-18T15:05:19.768Z,22.80
2018-12-18T15:07:48.484Z,25.50
2018-12-18T15:10:17.329Z,24.47
2018-12-18T15:12:50.311Z,23.90
2018-12-18T15:15:19.352Z,24.83
2018-12-18T15:17:48.417Z,25.77
2018-12-18T15:20:17.143Z,24.20
2018-12-18T15:22:45.923Z,25.80
2018-12-18T15:25:14.653Z,24.50
2018-12-18T15:27:43.482Z,23.77
2018-12-18T15:30:12.427Z,24.50
2018-12-18T15:32:41.422Z,23.07
2018-12-18T15:35:10.672Z,21.87
2018-12-18T15:37:39.887Z,24.23
2018-12-18T15:40:09.100Z,23.10
2018-12-18T15:42:37.866Z,22.77
2018-12-18T15:45:08.412Z,24.30
2018-12-18T15:47:37.182Z,24.63
2018-12-18T15:50:08.117Z,23.63
2018-12-18T15:52:37.026Z,22.77
2018-12-18T15:55:06.231Z,21.83
2018-12-18T15:57:35.009Z,24.23
2018-12-18T16:00:12.125Z,22.83
2018-12-18T16:02:41.707Z,22.37
2018-12-18T16:05:10.440Z,23.03
2018-12-18T16:07:40.418Z,23.43
2018-12-18T16:10:09.652Z,24.03
2018-12-18T16:12:38.545Z,24.70
2018-12-18T16:15:08.183Z,26.17
2018-12-18T16:17:37.022Z,26.97
2018-12-18T16:20:06.727Z,28.37
2018-12-18T16:22:35.472Z,27.30
2018-12-18T16:25:04.773Z,29.23
2018-12-18T16:27:33.866Z,28.93
2018-12-18T16:30:02.718Z,28.77
2018-12-18T16:32:31.507Z,29.70
2018-12-18T16:35:00.281Z,31.93
2018-12-18T16:37:29.056Z,30.20
2018-12-18T16:39:57.853Z,29.37
2018-12-18T16:42:26.647Z,28.83
2018-12-18T16:44:55.394Z,28.83
2018-12-18T16:47:24.071Z,28.00
2018-12-18T16:49:52.894Z,30.00
2018-12-18T16:52:22.338Z,27.10
2018-12-18T16:54:51.203Z,27.57
2018-12-18T16:57:20.591Z,27.23
2018-12-18T16:59:49.305Z,27.50
2018-12-18T17:02:18.581Z,28.37
2018-12-18T17:04:47.341Z,27.03
2018-12-18T17:07:16.278Z,27.73
2018-12-18T17:09:45.092Z,29.37
2018-12-18T17:12:14.279Z,26.60
2018-12-18T17:14:43.071Z,27.67
2018-12-18T17:17:11.880Z,28.10
2018-12-18T17:19:40.676Z,25.30
2018-12-18T17:22:09.516Z,27.93
2018-12-18T17:24:38.263Z,27.37
2018-12-18T17:27:07.060Z,27.50
2018-12-18T17:29:35.874Z,27.00
2018-12-18T17:32:06.390Z,25.80
2018-12-18T17:34:35.172Z,25.13
2018-12-18T17:37:03.949Z,25.97
2018-12-18T17:39:32.643Z,25.13
2018-12-18T17:42:01.388Z,24.90
2018-12-18T17:44:30.163Z,23.00
2018-12-18T17:46:59.050Z,24.87
2018-12-18T17:49:27.854Z,22.17
2018-12-18T17:51:56.585Z,22.67
2018-12-18T17:54:25.341Z,24.40
2018-12-18T17:56:54.357Z,21.33
2018-12-18T17:59:23.207Z,23.13
2018-12-18T18:01:51.967Z,22.10
2018-12-18T18:04:20.699Z,22.33
2018-12-18T18:06:49.453Z,22.87
2018-12-18T18:09:18.212Z,24.47
2018-12-18T18:11:47.034Z,23.70
2018-12-18T18:14:16.210Z,23.37
2018-12-18T18:16:45.138Z,22.73
2018-12-18T18:19:13.992Z,23.27
2018-12-18T18:21:42.742Z,24.83
2018-12-18T18:24:11.491Z,25.23
2018-12-18T18:26:40.332Z,25.30
2018-12-18T18:29:09.107Z,25.03
2018-12-18T18:31:38.026Z,24.83
2018-12-18T18:34:06.847Z,24.20
2018-12-18T18:36:35.828Z,23.40
2018-12-18T18:39:07.973Z,24.17
2018-12-18T18:41:36.759Z,23.60
2018-12-18T18:44:06.180Z,23.37
2018-12-18T18:46:34.924Z,25.30
2018-12-18T18:49:04.149Z,24.17
2018-12-18T18:51:32.966Z,23.33
2018-12-18T18:54:01.727Z,21.97
2018-12-18T18:56:30.443Z,23.97
2018-12-18T18:59:00.243Z,23.70
2018-12-18T19:01:29.099Z,22.33
2018-12-18T19:03:58.749Z,21.70
2018-12-18T19:06:28.416Z,23.07
2018-12-18T19:08:57.309Z,21.37
2018-12-18T19:11:26.178Z,20.07
2018-12-18T19:13:54.940Z,21.03
2018-12-18T19:16:23.756Z,21.93
2018-12-18T19:18:52.671Z,20.60
2018-12-18T19:21:21.451Z,20.27
2018-12-18T19:23:50.301Z,21.10
2018-12-18T19:26:19.051Z,20.57
2018-12-18T19:28:50.368Z,20.73
2018-12-18T19:31:18.634Z,19.90
2018-12-18T19:33:47.409Z,20.87
2018-12-18T19:36:16.252Z,20.97
2018-12-18T19:38:45.017Z,20.43
2018-12-18T19:41:13.797Z,20.13
2018-12-18T19:43:42.609Z,20.23
2018-12-18T19:46:11.396Z,20.53
2018-12-18T19:48:40.627Z,20.03
2018-12-18T19:51:09.363Z,18.70
2018-12-18T19:53:38.113Z,19.43
2018-12-18T19:56:06.948Z,20.07
2018-12-18T19:58:35.690Z,19.40
2018-12-18T20:01:04.538Z,20.67
2018-12-18T20:03:33.351Z,19.93
2018-12-18T20:06:02.069Z,20.30
2018-12-18T20:08:30.866Z,19.30
2018-12-18T20:10:59.609Z,19.23
2018-12-18T20:13:28.375Z,19.03
2018-12-18T20:15:57.177Z,19.73
2018-12-18T20:18:25.959Z,17.93
2018-12-18T20:20:54.737Z,19.27
2018-12-18T20:23:23.462Z,19.20
2018-12-18T20:25:52.623Z,19.40
2018-12-18T20:28:21.350Z,18.17
2018-12-18T20:30:50.171Z,18.07
2018-12-18T20:33:18.891Z,19.67
2018-12-18T20:35:47.894Z,19.83
2018-12-18T20:38:17.163Z,19.27
2018-12-18T20:40:46.307Z,20.40
2018-12-18T20:43:14.986Z,19.50
2018-12-18T20:45:43.754Z,20.00
2018-12-18T20:48:12.912Z,19.87
2018-12-18T20:50:42.083Z,19.57
2018-12-18T20:53:10.896Z,19.33
2018-12-18T20:55:39.669Z,19.90
2018-12-18T20:58:08.519Z,19.17
2018-12-18T21:00:38.496Z,19.03
2018-12-18T21:03:07.271Z,19.50
2018-12-18T21:05:36.019Z,18.67
2018-12-18T21:08:04.764Z,20.60
2018-12-18T21:10:33.509Z,18.57
2018-12-18T21:13:07.459Z,19.10
2018-12-18T21:15:36.192Z,19.73
2018-12-18T21:18:04.975Z,18.80
2018-12-18T21:20:34.708Z,19.47
2018-12-18T21:23:03.433Z,19.07
2018-12-18T21:25:32.218Z,18.47
2018-12-18T21:28:01.046Z,18.27
2018-12-18T21:30:29.811Z,18.20
2018-12-18T21:32:58.633Z,17.23
2018-12-18T21:35:27.694Z,17.37
2018-12-18T21:37:56.347Z,17.37
2018-12-18T21:40:25.240Z,15.50
2018-12-18T21:42:53.953Z,17.67
2018-12-18T21:45:22.598Z,16.80
2018-12-18T21:47:51.324Z,17.40
2018-12-18T21:50:20.212Z,17.57
2018-12-18T21:52:50.185Z,17.83
2018-12-18T21:55:19.126Z,15.47
2018-12-18T21:57:48.660Z,17.53
2018-12-18T22:00:17.429Z,15.93
2018-12-18T22:02:46.607Z,15.73
2018-12-18T22:05:15.297Z,16.80
2018-12-18T22:07:44.055Z,16.73
2018-12-18T22:10:12.887Z,17.93
2018-12-18T22:12:41.747Z,16.20
2018-12-18T22:15:10.576Z,17.43
2018-12-18T22:17:39.315Z,17.83
2018-12-18T22:20:08.030Z,18.10
2018-12-18T22:22:36.862Z,16.93
2018-12-18T22:25:06.145Z,17.13
2018-12-18T22:27:34.900Z,17.97
2018-12-18T22:30:11.440Z,16.80
2018-12-18T22:32:40.293Z,17.17
2018-12-18T22:35:09.064Z,16.03
2018-12-18T22:37:37.765Z,16.83
2018-12-18T22:40:07.051Z,15.30
2018-12-18T22:42:35.836Z,16.63
2018-12-18T22:45:04.560Z,16.93
2018-12-18T22:47:33.271Z,16.20
2018-12-18T22:50:02.045Z,17.47
2018-12-18T22:52:30.715Z,16.87
2018-12-18T22:54:59.467Z,16.83
2018-12-18T22:57:28.305Z,16.40
2018-12-18T22:59:57.033Z,17.47
2018-12-18T23:02:25.795Z,18.17
2018-12-18T23:04:54.900Z,16.67
2018-12-18T23:07:23.963Z,16.90
2018-12-18T23:09:52.773Z,16.87
2018-12-18T23:12:21.665Z,15.70
2018-12-18T23:14:50.516Z,17.10
2018-12-18T23:17:19.258Z,16.37
2018-12-18T23:19:48.034Z,15.77
2018-12-18T23:22:18.094Z,16.63
2018-12-18T23:24:46.799Z,15.90
2018-12-18T23:27:15.556Z,16.30
2018-12-18T23:29:44.289Z,16.53
2018-12-18T23:32:13.035Z,15.13
2018-12-18T23:34:41.951Z,16.47
2018-12-18T23:37:10.818Z,16.63
2018-12-18T23:39:39.577Z,16.57
2018-12-18T23:42:08.411Z,16.53
2018-12-18T23:44:37.352Z,15.00
2018-12-18T23:47:06.206Z,15.53
2018-12-18T23:49:35.032Z,16.00
2018-12-18T23:52:13.781Z,17.40
2018-12-18T23:54:42.888Z,17.07
2018-12-18T23:57:11.560Z,16.57
2018-12-18T23:59:40.794Z,17.60
